sensor_id;sensor_type;location;lat;lon;timestamp;pressure;altitude;pressure_sealevel;temperature;humidity
45357;BME280;31092;51.924;21.448;2023-07-30T00:01:51;99206.19;;;17.44;100.00
45357;BME280;31092;51.924;21.448;2023-07-30T00:04:16;99225.34;;;17.49;100.00
45357;BME280;31092;51.924;21.448;2023-07-30T00:06:49;99250.81;;;17.55;100.00
45357;BME280;31092;51.924;21.448;2023-07-30T00:09:15;99267.59;;;17.63;100.00
45357;BME280;31092;51.924;21.448;2023-07-30T00:11:40;99248.91;;;17.55;100.00
45357;BME280;31092;51.924;21.448;2023-07-30T00:14:06;99236.69;;;17.46;100.00
45357;BME280;31092;51.924;21.448;2023-07-30T00:16:32;99238.59;;;17.45;100.00
45357;BME280;31092;51.924;21.448;2023-07-30T00:19:08;99237.78;;;17.45;100.00
45357;BME280;31092;51.924;21.448;2023-07-30T00:21:42;99204.94;;;17.16;100.00
45357;BME280;31092;51.924;21.448;2023-07-30T00:27:31;99262.63;;;17.48;100.00
45357;BME280;31092;51.924;21.448;2023-07-30T00:30:10;99277.66;;;17.51;100.00
45357;BME280;31092;51.924;21.448;2023-07-30T00:33:08;99286.88;;;17.38;100.00
45357;BME280;31092;51.924;21.448;2023-07-30T00:35:39;99231.63;;;16.96;100.00
45357;BME280;31092;51.924;21.448;2023-07-30T00:38:05;99283.16;;;17.21;100.00
45357;BME280;31092;51.924;21.448;2023-07-30T00:40:41;99291.59;;;17.31;100.00
45357;BME280;31092;51.924;21.448;2023-07-30T00:43:25;99210.31;;;16.81;100.00
45357;BME280;31092;51.924;21.448;2023-07-30T00:45:51;99222.63;;;16.95;100.00
45357;BME280;31092;51.924;21.448;2023-07-30T00:48:30;99290.78;;;17.42;100.00
45357;BME280;31092;51.924;21.448;2023-07-30T00:51:05;99276.06;;;17.32;100.00
45357;BME280;31092;51.924;21.448;2023-07-30T00:53:35;99267.22;;;17.36;100.00
45357;BME280;31092;51.924;21.448;2023-07-30T00:56:03;99287.59;;;17.45;100.00
45357;BME280;31092;51.924;21.448;2023-07-30T00:58:43;99273.72;;;17.35;100.00
45357;BME280;31092;51.924;21.448;2023-07-30T01:01:09;99297.53;;;17.40;100.00
45357;BME280;31092;51.924;21.448;2023-07-30T01:03:36;99207.38;;;16.83;100.00
45357;BME280;31092;51.924;21.448;2023-07-30T01:06:02;99211.94;;;16.82;100.00
45357;BME280;31092;51.924;21.448;2023-07-30T01:08:28;99258.63;;;17.09;100.00
45357;BME280;31092;51.924;21.448;2023-07-30T01:10:55;99209.63;;;16.67;100.00
45357;BME280;31092;51.924;21.448;2023-07-30T01:13:42;99202.50;;;16.55;100.00
45357;BME280;31092;51.924;21.448;2023-07-30T01:16:08;99283.69;;;16.99;100.00
45357;BME280;31092;51.924;21.448;2023-07-30T01:18:34;99284.72;;;16.87;100.00
45357;BME280;31092;51.924;21.448;2023-07-30T01:21:00;99312.66;;;16.94;100.00
45357;BME280;31092;51.924;21.448;2023-07-30T01:23:44;99253.78;;;16.51;100.00
45357;BME280;31092;51.924;21.448;2023-07-30T01:26:19;99256.56;;;16.44;100.00
45357;BME280;31092;51.924;21.448;2023-07-30T01:28:49;99327.16;;;16.88;100.00
45357;BME280;31092;51.924;21.448;2023-07-30T01:31:17;99288.63;;;16.72;100.00
45357;BME280;31092;51.924;21.448;2023-07-30T01:33:47;99251.88;;;16.51;100.00
45357;BME280;31092;51.924;21.448;2023-07-30T01:36:55;99320.47;;;17.02;100.00
45357;BME280;31092;51.924;21.448;2023-07-30T01:39:22;99250.88;;;16.64;100.00
45357;BME280;31092;51.924;21.448;2023-07-30T01:41:53;99248.50;;;16.68;100.00
45357;BME280;31092;51.924;21.448;2023-07-30T01:44:38;99273.00;;;16.86;100.00
45357;BME280;31092;51.924;21.448;2023-07-30T01:47:04;99311.44;;;17.20;100.00
45357;BME280;31092;51.924;21.448;2023-07-30T01:49:32;99279.56;;;17.09;100.00
45357;BME280;31092;51.924;21.448;2023-07-30T01:52:39;99261.06;;;16.87;100.00
45357;BME280;31092;51.924;21.448;2023-07-30T01:55:12;99244.75;;;16.87;100.00
45357;BME280;31092;51.924;21.448;2023-07-30T01:57:38;99254.69;;;16.93;100.00
45357;BME280;31092;51.924;21.448;2023-07-30T02:00:23;99231.69;;;16.78;100.00
45357;BME280;31092;51.924;21.448;2023-07-30T02:04:13;99333.22;;;17.32;100.00
45357;BME280;31092;51.924;21.448;2023-07-30T02:06:57;99329.94;;;17.30;100.00
45357;BME280;31092;51.924;21.448;2023-07-30T02:12:49;99336.91;;;17.26;100.00
45357;BME280;31092;51.924;21.448;2023-07-30T02:15:18;99325.03;;;17.20;100.00
45357;BME280;31092;51.924;21.448;2023-07-30T02:18:02;99336.19;;;17.30;100.00
45357;BME280;31092;51.924;21.448;2023-07-30T02:20:39;99265.78;;;16.92;100.00
45357;BME280;31092;51.924;21.448;2023-07-30T02:23:05;99309.53;;;17.20;100.00
45357;BME280;31092;51.924;21.448;2023-07-30T02:25:43;99248.75;;;16.85;100.00
45357;BME280;31092;51.924;21.448;2023-07-30T02:28:09;99236.06;;;16.79;100.00
45357;BME280;31092;51.924;21.448;2023-07-30T02:30:38;99229.22;;;16.76;100.00
45357;BME280;31092;51.924;21.448;2023-07-30T02:33:07;99338.47;;;17.33;100.00
45357;BME280;31092;51.924;21.448;2023-07-30T02:35:56;99334.91;;;17.33;100.00
45357;BME280;31092;51.924;21.448;2023-07-30T02:38:22;99330.59;;;17.25;100.00
45357;BME280;31092;51.924;21.448;2023-07-30T02:40:47;99309.50;;;17.09;100.00
45357;BME280;31092;51.924;21.448;2023-07-30T02:43:16;99273.91;;;16.80;100.00
45357;BME280;31092;51.924;21.448;2023-07-30T02:45:42;99320.38;;;17.09;100.00
45357;BME280;31092;51.924;21.448;2023-07-30T02:48:30;99254.28;;;16.60;100.00
45357;BME280;31092;51.924;21.448;2023-07-30T02:53:58;99328.44;;;16.85;100.00
45357;BME280;31092;51.924;21.448;2023-07-30T02:56:55;99301.94;;;16.62;100.00
45357;BME280;31092;51.924;21.448;2023-07-30T02:59:31;99330.06;;;16.68;100.00
45357;BME280;31092;51.924;21.448;2023-07-30T03:02:09;99337.09;;;16.57;100.00
45357;BME280;31092;51.924;21.448;2023-07-30T03:04:44;99352.38;;;16.58;100.00
45357;BME280;31092;51.924;21.448;2023-07-30T03:07:13;99319.66;;;16.28;100.00
45357;BME280;31092;51.924;21.448;2023-07-30T03:09:41;99348.66;;;16.34;100.00
45357;BME280;31092;51.924;21.448;2023-07-30T03:12:08;99265.22;;;15.79;100.00
45357;BME280;31092;51.924;21.448;2023-07-30T03:14:33;99326.47;;;16.19;100.00
45357;BME280;31092;51.924;21.448;2023-07-30T03:16:59;99332.09;;;16.17;100.00
45357;BME280;31092;51.924;21.448;2023-07-30T03:19:28;99352.28;;;16.28;100.00
45357;BME280;31092;51.924;21.448;2023-07-30T03:25:17;99351.44;;;16.27;100.00
45357;BME280;31092;51.924;21.448;2023-07-30T03:27:52;99266.56;;;15.70;100.00
45357;BME280;31092;51.924;21.448;2023-07-30T03:30:18;99358.00;;;16.20;100.00
45357;BME280;31092;51.924;21.448;2023-07-30T03:32:44;99270.13;;;15.64;100.00
45357;BME280;31092;51.924;21.448;2023-07-30T03:35:12;99296.50;;;15.82;100.00
45357;BME280;31092;51.924;21.448;2023-07-30T03:37:38;99278.47;;;15.69;100.00
45357;BME280;31092;51.924;21.448;2023-07-30T03:40:04;99287.00;;;15.73;100.00
45357;BME280;31092;51.924;21.448;2023-07-30T03:42:30;99350.28;;;16.17;100.00
45357;BME280;31092;51.924;21.448;2023-07-30T03:45:25;99367.75;;;16.27;100.00
45357;BME280;31092;51.924;21.448;2023-07-30T03:47:51;99289.19;;;15.83;100.00
45357;BME280;31092;51.924;21.448;2023-07-30T03:50:17;99302.88;;;15.94;100.00
45357;BME280;31092;51.924;21.448;2023-07-30T03:52:42;99347.91;;;16.27;100.00
45357;BME280;31092;51.924;21.448;2023-07-30T03:55:29;99369.28;;;16.42;100.00
45357;BME280;31092;51.924;21.448;2023-07-30T03:57:54;99334.31;;;16.27;100.00
45357;BME280;31092;51.924;21.448;2023-07-30T04:00:20;99356.94;;;16.39;100.00
45357;BME280;31092;51.924;21.448;2023-07-30T04:02:46;99310.53;;;16.22;100.00
45357;BME280;31092;51.924;21.448;2023-07-30T04:05:12;99368.75;;;16.70;100.00
45357;BME280;31092;51.924;21.448;2023-07-30T04:07:37;99276.44;;;16.26;100.00
45357;BME280;31092;51.924;21.448;2023-07-30T04:10:13;99298.28;;;16.50;100.00
45357;BME280;31092;51.924;21.448;2023-07-30T04:12:41;99357.38;;;16.98;100.00
45357;BME280;31092;51.924;21.448;2023-07-30T04:15:07;99320.28;;;16.85;100.00
45357;BME280;31092;51.924;21.448;2023-07-30T04:20:13;99324.09;;;16.96;100.00
45357;BME280;31092;51.924;21.448;2023-07-30T04:23:13;99388.94;;;17.47;100.00
45357;BME280;31092;51.924;21.448;2023-07-30T04:25:42;99311.25;;;17.03;100.00
45357;BME280;31092;51.924;21.448;2023-07-30T04:28:08;99342.72;;;17.29;100.00
45357;BME280;31092;51.924;21.448;2023-07-30T04:30:34;99402.69;;;17.64;100.00
45357;BME280;31092;51.924;21.448;2023-07-30T04:33:00;99391.44;;;17.61;100.00
45357;BME280;31092;51.924;21.448;2023-07-30T04:35:26;99388.41;;;17.69;100.00
45357;BME280;31092;51.924;21.448;2023-07-30T04:38:15;99328.63;;;17.32;100.00
45357;BME280;31092;51.924;21.448;2023-07-30T04:40:41;99345.38;;;17.47;100.00
45357;BME280;31092;51.924;21.448;2023-07-30T04:43:29;99350.34;;;17.51;100.00
45357;BME280;31092;51.924;21.448;2023-07-30T04:45:55;99408.59;;;17.91;100.00
45357;BME280;31092;51.924;21.448;2023-07-30T04:48:23;99349.84;;;17.54;100.00
45357;BME280;31092;51.924;21.448;2023-07-30T04:50:55;99342.66;;;17.59;100.00
45357;BME280;31092;51.924;21.448;2023-07-30T04:53:47;99431.50;;;18.14;100.00
45357;BME280;31092;51.924;21.448;2023-07-30T04:56:23;99437.66;;;18.09;100.00
45357;BME280;31092;51.924;21.448;2023-07-30T04:58:52;99387.44;;;17.75;100.00
45357;BME280;31092;51.924;21.448;2023-07-30T05:01:18;99400.53;;;17.85;100.00
45357;BME280;31092;51.924;21.448;2023-07-30T05:03:44;99354.00;;;17.56;100.00
45357;BME280;31092;51.924;21.448;2023-07-30T05:06:15;99423.78;;;17.99;100.00
45357;BME280;31092;51.924;21.448;2023-07-30T05:08:59;99302.56;;;17.24;100.00
45357;BME280;31092;51.924;21.448;2023-07-30T05:11:25;99429.81;;;18.01;100.00
45357;BME280;31092;51.924;21.448;2023-07-30T05:13:51;99440.16;;;18.11;100.00
45357;BME280;31092;51.924;21.448;2023-07-30T05:19:44;99457.44;;;18.16;100.00
45357;BME280;31092;51.924;21.448;2023-07-30T05:22:19;99417.84;;;18.02;100.00
45357;BME280;31092;51.924;21.448;2023-07-30T05:24:58;99399.13;;;17.94;100.00
45357;BME280;31092;51.924;21.448;2023-07-30T05:27:35;99455.59;;;18.29;100.00
45357;BME280;31092;51.924;21.448;2023-07-30T05:30:10;99441.00;;;18.23;100.00
45357;BME280;31092;51.924;21.448;2023-07-30T05:36:35;99385.25;;;17.95;100.00
45357;BME280;31092;51.924;21.448;2023-07-30T05:38:42;99414.22;;;18.20;100.00
45357;BME280;31092;51.924;21.448;2023-07-30T05:41:27;99407.81;;;18.26;100.00
45357;BME280;31092;51.924;21.448;2023-07-30T05:44:02;99399.03;;;18.24;100.00
45357;BME280;31092;51.924;21.448;2023-07-30T05:46:27;99443.75;;;18.58;100.00
45357;BME280;31092;51.924;21.448;2023-07-30T05:48:53;99448.81;;;18.66;100.00
45357;BME280;31092;51.924;21.448;2023-07-30T05:51:31;99450.00;;;18.71;100.00
45357;BME280;31092;51.924;21.448;2023-07-30T05:54:57;99464.41;;;18.89;100.00
45357;BME280;31092;51.924;21.448;2023-07-30T05:57:21;99468.75;;;19.02;100.00
45357;BME280;31092;51.924;21.448;2023-07-30T05:59:47;99441.44;;;19.02;100.00
45357;BME280;31092;51.924;21.448;2023-07-30T06:02:52;99475.47;;;19.23;100.00
45357;BME280;31092;51.924;21.448;2023-07-30T06:05:17;99461.94;;;19.17;100.00
45357;BME280;31092;51.924;21.448;2023-07-30T06:07:43;99457.84;;;19.02;100.00
45357;BME280;31092;51.924;21.448;2023-07-30T06:10:12;99488.81;;;19.08;100.00
45357;BME280;31092;51.924;21.448;2023-07-30T06:12:47;99416.91;;;18.67;100.00
45357;BME280;31092;51.924;21.448;2023-07-30T06:15:13;99479.66;;;19.02;100.00
45357;BME280;31092;51.924;21.448;2023-07-30T06:17:48;99468.41;;;18.87;100.00
45357;BME280;31092;51.924;21.448;2023-07-30T06:20:31;99397.97;;;18.37;100.00
45357;BME280;31092;51.924;21.448;2023-07-30T06:22:57;99462.25;;;18.80;100.00
45357;BME280;31092;51.924;21.448;2023-07-30T06:25:29;99404.47;;;18.59;100.00
45357;BME280;31092;51.924;21.448;2023-07-30T06:27:55;99481.78;;;19.12;100.00
45357;BME280;31092;51.924;21.448;2023-07-30T06:30:24;99391.94;;;18.58;100.00
45357;BME280;31092;51.924;21.448;2023-07-30T06:32:58;99409.00;;;18.89;100.00
45357;BME280;31092;51.924;21.448;2023-07-30T06:35:45;99418.41;;;19.10;100.00
45357;BME280;31092;51.924;21.448;2023-07-30T06:38:11;99418.75;;;19.13;100.00
45357;BME280;31092;51.924;21.448;2023-07-30T06:40:36;99442.84;;;19.28;100.00
45357;BME280;31092;51.924;21.448;2023-07-30T06:43:17;99468.31;;;19.74;100.00
45357;BME280;31092;51.924;21.448;2023-07-30T06:46:07;99477.84;;;19.60;100.00
45357;BME280;31092;51.924;21.448;2023-07-30T06:48:33;99496.13;;;19.59;100.00
45357;BME280;31092;51.924;21.448;2023-07-30T06:51:00;99486.28;;;19.70;100.00
45357;BME280;31092;51.924;21.448;2023-07-30T06:53:25;99417.38;;;19.40;100.00
45357;BME280;31092;51.924;21.448;2023-07-30T06:56:24;99504.00;;;20.13;100.00
45357;BME280;31092;51.924;21.448;2023-07-30T06:59:10;99482.41;;;20.28;100.00
45357;BME280;31092;51.924;21.448;2023-07-30T07:01:38;99417.19;;;19.87;100.00
45357;BME280;31092;51.924;21.448;2023-07-30T07:04:03;99454.47;;;19.93;100.00
45357;BME280;31092;51.924;21.448;2023-07-30T07:06:31;99472.94;;;20.02;100.00
45357;BME280;31092;51.924;21.448;2023-07-30T07:09:05;99490.66;;;20.17;100.00
45357;BME280;31092;51.924;21.448;2023-07-30T07:11:41;99449.34;;;19.96;100.00
45357;BME280;31092;51.924;21.448;2023-07-30T07:14:07;99424.94;;;19.78;100.00
45357;BME280;31092;51.924;21.448;2023-07-30T07:16:32;99477.34;;;20.03;100.00
45357;BME280;31092;51.924;21.448;2023-07-30T07:18:58;99478.19;;;20.21;100.00
45357;BME280;31092;51.924;21.448;2023-07-30T07:21:24;99418.25;;;20.02;100.00
45357;BME280;31092;51.924;21.448;2023-07-30T07:23:52;99428.53;;;20.12;100.00
45357;BME280;31092;51.924;21.448;2023-07-30T07:26:41;99495.94;;;20.69;100.00
45357;BME280;31092;51.924;21.448;2023-07-30T07:29:07;99485.38;;;20.77;100.00
45357;BME280;31092;51.924;21.448;2023-07-30T07:31:33;99500.25;;;20.82;100.00
45357;BME280;31092;51.924;21.448;2023-07-30T07:33:59;99486.94;;;20.90;100.00
45357;BME280;31092;51.924;21.448;2023-07-30T07:36:24;99504.38;;;21.23;100.00
45357;BME280;31092;51.924;21.448;2023-07-30T07:38:50;99483.69;;;21.32;100.00
45357;BME280;31092;51.924;21.448;2023-07-30T07:41:16;99480.84;;;21.44;100.00
45357;BME280;31092;51.924;21.448;2023-07-30T07:43:51;99499.66;;;21.35;100.00
45357;BME280;31092;51.924;21.448;2023-07-30T07:46:27;99474.50;;;20.99;100.00
45357;BME280;31092;51.924;21.448;2023-07-30T07:49:03;99442.84;;;20.87;100.00
45357;BME280;31092;51.924;21.448;2023-07-30T07:51:32;99499.13;;;21.38;100.00
45357;BME280;31092;51.924;21.448;2023-07-30T07:53:57;99446.34;;;21.26;100.00
45357;BME280;31092;51.924;21.448;2023-07-30T07:56:23;99511.69;;;21.56;100.00
45357;BME280;31092;51.924;21.448;2023-07-30T07:58:58;99491.53;;;21.67;100.00
45357;BME280;31092;51.924;21.448;2023-07-30T08:01:23;99417.63;;;21.50;100.00
45357;BME280;31092;51.924;21.448;2023-07-30T08:03:49;99435.47;;;21.53;100.00
45357;BME280;31092;51.924;21.448;2023-07-30T08:06:15;99481.94;;;21.92;100.00
45357;BME280;31092;51.924;21.448;2023-07-30T08:08:40;99454.81;;;21.95;100.00
45357;BME280;31092;51.924;21.448;2023-07-30T08:11:07;99502.25;;;21.96;100.00
45357;BME280;31092;51.924;21.448;2023-07-30T08:13:33;99463.56;;;21.43;100.00
45357;BME280;31092;51.924;21.448;2023-07-30T08:15:59;99475.28;;;21.61;100.00
45357;BME280;31092;51.924;21.448;2023-07-30T08:18:25;99456.41;;;21.64;100.00
45357;BME280;31092;51.924;21.448;2023-07-30T08:20:51;99441.38;;;21.67;100.00
45357;BME280;31092;51.924;21.448;2023-07-30T08:23:17;99501.75;;;22.26;100.00
45357;BME280;31092;51.924;21.448;2023-07-30T08:25:42;99504.38;;;22.43;100.00
45357;BME280;31092;51.924;21.448;2023-07-30T08:28:08;99492.53;;;22.75;100.00
45357;BME280;31092;51.924;21.448;2023-07-30T08:30:33;99498.44;;;22.93;100.00
45357;BME280;31092;51.924;21.448;2023-07-30T08:32:59;99518.94;;;22.81;100.00
45357;BME280;31092;51.924;21.448;2023-07-30T08:35:25;99529.00;;;23.02;100.00
45357;BME280;31092;51.924;21.448;2023-07-30T08:37:52;99464.19;;;22.64;100.00
45357;BME280;31092;51.924;21.448;2023-07-30T08:40:18;99518.25;;;22.96;100.00
45357;BME280;31092;51.924;21.448;2023-07-30T08:42:46;99508.50;;;22.83;100.00
45357;BME280;31092;51.924;21.448;2023-07-30T08:45:11;99463.19;;;22.43;100.00
45357;BME280;31092;51.924;21.448;2023-07-30T08:47:39;99474.03;;;22.60;100.00
45357;BME280;31092;51.924;21.448;2023-07-30T08:50:06;99524.31;;;23.03;100.00
45357;BME280;31092;51.924;21.448;2023-07-30T08:52:32;99482.41;;;22.80;100.00
45357;BME280;31092;51.924;21.448;2023-07-30T08:55:01;99510.50;;;23.40;100.00
45357;BME280;31092;51.924;21.448;2023-07-30T08:57:28;99467.00;;;23.16;100.00
45357;BME280;31092;51.924;21.448;2023-07-30T09:00:02;99523.47;;;23.45;100.00
45357;BME280;31092;51.924;21.448;2023-07-30T09:02:41;99477.47;;;23.25;100.00
45357;BME280;31092;51.924;21.448;2023-07-30T09:05:08;99516.44;;;23.74;100.00
45357;BME280;31092;51.924;21.448;2023-07-30T09:07:34;99520.59;;;23.82;100.00
45357;BME280;31092;51.924;21.448;2023-07-30T09:09:59;99543.84;;;23.59;100.00
45357;BME280;31092;51.924;21.448;2023-07-30T09:12:35;99502.34;;;23.03;100.00
45357;BME280;31092;51.924;21.448;2023-07-30T09:15:05;99471.81;;;22.57;100.00
45357;BME280;31092;51.924;21.448;2023-07-30T09:17:32;99498.38;;;22.88;100.00
45357;BME280;31092;51.924;21.448;2023-07-30T09:19:59;99497.34;;;22.57;100.00
45357;BME280;31092;51.924;21.448;2023-07-30T09:22:33;99483.38;;;22.27;100.00
45357;BME280;31092;51.924;21.448;2023-07-30T09:25:02;99549.66;;;23.15;100.00
45357;BME280;31092;51.924;21.448;2023-07-30T09:27:28;99540.25;;;23.53;100.00
45357;BME280;31092;51.924;21.448;2023-07-30T09:29:55;99528.25;;;23.17;100.00
45357;BME280;31092;51.924;21.448;2023-07-30T09:32:29;99477.06;;;23.01;100.00
45357;BME280;31092;51.924;21.448;2023-07-30T09:34:55;99494.59;;;23.42;100.00
45357;BME280;31092;51.924;21.448;2023-07-30T09:37:21;99560.75;;;23.93;100.00
45357;BME280;31092;51.924;21.448;2023-07-30T09:39:48;99505.75;;;23.93;100.00
45357;BME280;31092;51.924;21.448;2023-07-30T09:42:14;99487.28;;;23.68;100.00
45357;BME280;31092;51.924;21.448;2023-07-30T09:44:39;99527.56;;;23.42;100.00
45357;BME280;31092;51.924;21.448;2023-07-30T09:47:09;99515.03;;;23.09;100.00
45357;BME280;31092;51.924;21.448;2023-07-30T09:49:38;99506.63;;;23.31;100.00
45357;BME280;31092;51.924;21.448;2023-07-30T09:52:04;99472.78;;;23.20;100.00
45357;BME280;31092;51.924;21.448;2023-07-30T09:54:31;99499.78;;;23.38;100.00
45357;BME280;31092;51.924;21.448;2023-07-30T09:56:58;99546.47;;;23.96;100.00
45357;BME280;31092;51.924;21.448;2023-07-30T09:59:23;99563.66;;;24.54;100.00
45357;BME280;31092;51.924;21.448;2023-07-30T10:01:49;99503.63;;;24.31;100.00
45357;BME280;31092;51.924;21.448;2023-07-30T10:04:19;99495.84;;;23.77;100.00
45357;BME280;31092;51.924;21.448;2023-07-30T10:07:06;99540.28;;;23.63;100.00
45357;BME280;31092;51.924;21.448;2023-07-30T10:09:42;99481.31;;;23.24;100.00
45357;BME280;31092;51.924;21.448;2023-07-30T10:12:15;99444.00;;;23.43;100.00
45357;BME280;31092;51.924;21.448;2023-07-30T10:14:42;99484.63;;;24.19;100.00
45357;BME280;31092;51.924;21.448;2023-07-30T10:17:10;99533.06;;;24.87;100.00
45357;BME280;31092;51.924;21.448;2023-07-30T10:19:36;99443.91;;;24.67;100.00
45357;BME280;31092;51.924;21.448;2023-07-30T10:24:43;99476.88;;;25.03;100.00
45357;BME280;31092;51.924;21.448;2023-07-30T10:27:36;99471.97;;;24.38;100.00
45357;BME280;31092;51.924;21.448;2023-07-30T10:30:10;99546.00;;;24.30;100.00
45357;BME280;31092;51.924;21.448;2023-07-30T10:32:59;99484.06;;;24.17;100.00
45357;BME280;31092;51.924;21.448;2023-07-30T10:35:43;99542.72;;;24.89;100.00
45357;BME280;31092;51.924;21.448;2023-07-30T10:38:29;99517.94;;;24.94;100.00
45357;BME280;31092;51.924;21.448;2023-07-30T10:41:05;99544.06;;;25.07;100.00
45357;BME280;31092;51.924;21.448;2023-07-30T10:43:34;99548.25;;;24.74;100.00
45357;BME280;31092;51.924;21.448;2023-07-30T10:46:00;99523.19;;;24.80;100.00
45357;BME280;31092;51.924;21.448;2023-07-30T10:48:31;99520.44;;;24.80;100.00
45357;BME280;31092;51.924;21.448;2023-07-30T10:50:58;99501.09;;;25.06;100.00
45357;BME280;31092;51.924;21.448;2023-07-30T10:53:24;99457.06;;;24.96;100.00
45357;BME280;31092;51.924;21.448;2023-07-30T10:55:50;99466.94;;;24.97;100.00
45357;BME280;31092;51.924;21.448;2023-07-30T10:58:18;99516.47;;;25.38;100.00
45357;BME280;31092;51.924;21.448;2023-07-30T11:00:43;99468.09;;;24.75;100.00
45357;BME280;31092;51.924;21.448;2023-07-30T11:03:09;99533.94;;;24.46;100.00
45357;BME280;31092;51.924;21.448;2023-07-30T11:05:38;99459.03;;;24.24;100.00
45357;BME280;31092;51.924;21.448;2023-07-30T11:08:03;99435.66;;;24.52;100.00
45357;BME280;31092;51.924;21.448;2023-07-30T11:10:29;99445.44;;;25.14;100.00
45357;BME280;31092;51.924;21.448;2023-07-30T11:12:57;99462.69;;;25.45;100.00
45357;BME280;31092;51.924;21.448;2023-07-30T11:15:23;99465.22;;;25.31;100.00
45357;BME280;31092;51.924;21.448;2023-07-30T11:17:51;99454.50;;;25.25;100.00
45357;BME280;31092;51.924;21.448;2023-07-30T11:20:24;99515.09;;;25.35;100.00
45357;BME280;31092;51.924;21.448;2023-07-30T11:22:52;99447.50;;;24.47;100.00
45357;BME280;31092;51.924;21.448;2023-07-30T11:25:18;99513.25;;;24.33;100.00
45357;BME280;31092;51.924;21.448;2023-07-30T11:27:47;99524.25;;;24.28;100.00
45357;BME280;31092;51.924;21.448;2023-07-30T11:30:13;99459.59;;;24.31;100.00
45357;BME280;31092;51.924;21.448;2023-07-30T11:32:38;99457.94;;;24.60;100.00
45357;BME280;31092;51.924;21.448;2023-07-30T11:35:06;99454.59;;;24.84;100.00
45357;BME280;31092;51.924;21.448;2023-07-30T11:37:32;99521.50;;;25.05;100.00
45357;BME280;31092;51.924;21.448;2023-07-30T11:39:59;99500.34;;;24.65;100.00
45357;BME280;31092;51.924;21.448;2023-07-30T11:42:25;99430.97;;;23.96;100.00
45357;BME280;31092;51.924;21.448;2023-07-30T11:44:51;99454.31;;;23.83;100.00
45357;BME280;31092;51.924;21.448;2023-07-30T11:47:22;99444.94;;;23.69;100.00
45357;BME280;31092;51.924;21.448;2023-07-30T11:49:56;99490.38;;;23.97;100.00
45357;BME280;31092;51.924;21.448;2023-07-30T11:52:22;99461.78;;;24.08;100.00
45357;BME280;31092;51.924;21.448;2023-07-30T11:54:47;99482.44;;;24.67;100.00
45357;BME280;31092;51.924;21.448;2023-07-30T11:57:13;99471.31;;;25.08;100.00
45357;BME280;31092;51.924;21.448;2023-07-30T11:59:38;99488.06;;;25.42;100.00
45357;BME280;31092;51.924;21.448;2023-07-30T12:02:07;99440.22;;;24.97;100.00
45357;BME280;31092;51.924;21.448;2023-07-30T12:04:45;99443.34;;;24.65;100.00
45357;BME280;31092;51.924;21.448;2023-07-30T12:07:10;99421.88;;;24.31;100.00
45357;BME280;31092;51.924;21.448;2023-07-30T12:09:36;99485.50;;;24.55;100.00
45357;BME280;31092;51.924;21.448;2023-07-30T12:12:03;99427.13;;;24.07;100.00
45357;BME280;31092;51.924;21.448;2023-07-30T12:14:44;99446.91;;;24.14;100.00
45357;BME280;31092;51.924;21.448;2023-07-30T12:17:10;99436.72;;;24.71;100.00
45357;BME280;31092;51.924;21.448;2023-07-30T12:19:35;99441.19;;;25.42;100.00
45357;BME280;31092;51.924;21.448;2023-07-30T12:22:02;99478.25;;;26.20;100.00
45357;BME280;31092;51.924;21.448;2023-07-30T12:24:27;99496.25;;;26.52;100.00
45357;BME280;31092;51.924;21.448;2023-07-30T12:26:53;99463.84;;;26.28;100.00
45357;BME280;31092;51.924;21.448;2023-07-30T12:29:18;99443.19;;;26.25;100.00
45357;BME280;31092;51.924;21.448;2023-07-30T12:31:44;99481.88;;;26.55;100.00
45357;BME280;31092;51.924;21.448;2023-07-30T12:34:11;99452.53;;;26.30;100.00
45357;BME280;31092;51.924;21.448;2023-07-30T12:36:36;99487.25;;;26.70;100.00
45357;BME280;31092;51.924;21.448;2023-07-30T12:39:03;99500.09;;;26.85;100.00
45357;BME280;31092;51.924;21.448;2023-07-30T12:41:29;99473.28;;;26.56;100.00
45357;BME280;31092;51.924;21.448;2023-07-30T12:43:55;99478.56;;;26.82;100.00
45357;BME280;31092;51.924;21.448;2023-07-30T12:46:22;99482.59;;;26.94;100.00
45357;BME280;31092;51.924;21.448;2023-07-30T12:48:48;99479.13;;;26.79;100.00
45357;BME280;31092;51.924;21.448;2023-07-30T12:51:14;99405.28;;;26.02;100.00
45357;BME280;31092;51.924;21.448;2023-07-30T12:53:40;99412.41;;;26.08;100.00
45357;BME280;31092;51.924;21.448;2023-07-30T12:56:05;99476.69;;;26.48;100.00
45357;BME280;31092;51.924;21.448;2023-07-30T12:58:31;99476.31;;;26.20;100.00
45357;BME280;31092;51.924;21.448;2023-07-30T13:00:56;99408.06;;;25.97;100.00
45357;BME280;31092;51.924;21.448;2023-07-30T13:03:22;99417.78;;;26.23;100.00
45357;BME280;31092;51.924;21.448;2023-07-30T13:05:47;99464.13;;;26.61;100.00
45357;BME280;31092;51.924;21.448;2023-07-30T13:08:13;99411.63;;;26.32;100.00
45357;BME280;31092;51.924;21.448;2023-07-30T13:10:38;99426.25;;;26.32;100.00
45357;BME280;31092;51.924;21.448;2023-07-30T13:13:04;99480.31;;;26.38;100.00
45357;BME280;31092;51.924;21.448;2023-07-30T13:15:29;99442.25;;;26.35;100.00
45357;BME280;31092;51.924;21.448;2023-07-30T13:17:55;99482.78;;;26.74;100.00
45357;BME280;31092;51.924;21.448;2023-07-30T13:20:20;99404.91;;;26.43;100.00
45357;BME280;31092;51.924;21.448;2023-07-30T13:22:46;99463.94;;;26.81;100.00
45357;BME280;31092;51.924;21.448;2023-07-30T13:25:11;99440.59;;;26.68;100.00